createdAt,value
2023-03-17T00:00:25.656Z,101289.98
2023-03-17T00:03:23.603Z,101293.20
2023-03-17T00:05:56.787Z,101295.09
2023-03-17T00:08:31.818Z,101292.88
2023-03-17T00:11:04.721Z,101290.61
2023-03-17T00:13:37.197Z,101290.25
2023-03-17T00:16:09.278Z,101287.89
2023-03-17T00:18:41.727Z,101286.84
2023-03-17T00:21:17.104Z,101283.75
2023-03-17T00:23:53.019Z,101285.20
2023-03-17T00:26:26.747Z,101288.41
2023-03-17T00:28:59.080Z,101286.77
2023-03-17T00:31:32.831Z,101289.48
2023-03-17T00:34:06.009Z,101287.65
2023-03-17T00:36:38.765Z,101289.17
2023-03-17T00:39:11.849Z,101288.52
2023-03-17T00:41:44.790Z,101290.86
2023-03-17T00:44:17.576Z,101289.89
2023-03-17T00:46:48.427Z,101289.65
2023-03-17T00:49:22.948Z,101293.55
2023-03-17T00:51:55.717Z,101292.06
2023-03-17T00:54:28.027Z,101296.57
2023-03-17T00:57:00.403Z,101299.64
2023-03-17T00:59:37.317Z,101302.55
2023-03-17T01:02:10.561Z,101299.21
2023-03-17T01:04:49.895Z,101300.34
2023-03-17T01:07:25.568Z,101301.26
2023-03-17T01:09:56.232Z,101306.45
2023-03-17T01:12:29.272Z,101310.09
2023-03-17T01:15:01.656Z,101305.75
2023-03-17T01:17:34.194Z,101303.73
2023-03-17T01:20:08.152Z,101303.79
2023-03-17T01:22:40.639Z,101303.42
2023-03-17T01:25:14.015Z,101305.48
2023-03-17T01:27:46.871Z,101303.64
2023-03-17T01:30:27.556Z,101306.72
2023-03-17T01:33:01.007Z,101305.36
2023-03-17T01:35:33.804Z,101309.02
2023-03-17T01:38:06.399Z,101314.38
2023-03-17T01:40:43.930Z,101315.91
2023-03-17T01:43:24.729Z,101318.33
2023-03-17T01:46:29.679Z,101320.60
2023-03-17T01:49:19.445Z,101319.31
2023-03-17T01:51:57.688Z,101320.55
2023-03-17T01:54:35.706Z,101320.94
2023-03-17T01:57:13.666Z,101325.41
2023-03-17T01:59:50.960Z,101328.23
2023-03-17T02:02:26.171Z,101329.29
2023-03-17T02:04:58.646Z,101328.77
2023-03-17T02:07:31.501Z,101326.55
2023-03-17T02:10:04.578Z,101324.80
2023-03-17T02:12:37.552Z,101325.86
2023-03-17T02:15:11.487Z,101330.37
2023-03-17T02:17:43.828Z,101327.66
2023-03-17T02:20:30.480Z,101330.39
2023-03-17T02:23:04.358Z,101331.31
2023-03-17T02:25:40.146Z,101332.34
2023-03-17T02:28:14.995Z,101338.55
2023-03-17T02:30:47.393Z,101338.94
2023-03-17T02:33:20.325Z,101339.05
2023-03-17T02:35:53.121Z,101345.29
2023-03-17T02:38:25.452Z,101348.20
2023-03-17T02:40:57.821Z,101354.79
2023-03-17T02:43:30.070Z,101356.52
2023-03-17T02:46:02.559Z,101360.14
2023-03-17T02:48:35.632Z,101363.27
2023-03-17T02:51:08.469Z,101361.43
2023-03-17T02:53:40.760Z,101366.73
2023-03-17T02:56:13.496Z,101371.95
2023-03-17T02:58:45.807Z,101374.80
2023-03-17T03:01:18.337Z,101374.88
2023-03-17T03:03:49.030Z,101376.66
2023-03-17T03:06:23.737Z,101375.86
2023-03-17T03:08:56.053Z,101381.39
2023-03-17T03:11:29.509Z,101382.55
2023-03-17T03:14:01.754Z,101383.14
2023-03-17T03:16:34.091Z,101384.68
2023-03-17T03:19:07.087Z,101388.09
2023-03-17T03:21:39.501Z,101393.83
2023-03-17T03:24:11.995Z,101389.64
2023-03-17T03:26:44.392Z,101390.08
2023-03-17T03:29:16.987Z,101393.98
2023-03-17T03:31:48.807Z,101393.66
2023-03-17T03:34:21.301Z,101396.17
2023-03-17T03:36:51.960Z,101394.57
2023-03-17T03:39:24.274Z,101399.10
2023-03-17T03:41:58.390Z,101402.13
2023-03-17T03:44:31.139Z,101404.73
2023-03-17T03:47:03.577Z,101406.31
2023-03-17T03:49:36.020Z,101404.98
2023-03-17T03:52:09.265Z,101406.25
2023-03-17T03:54:41.553Z,101409.32
2023-03-17T03:57:14.075Z,101412.06
2023-03-17T03:59:46.500Z,101414.37
2023-03-17T04:02:19.078Z,101416.17
2023-03-17T04:04:51.880Z,101417.17
2023-03-17T04:07:22.581Z,101420.80
2023-03-17T04:09:54.833Z,101419.27
2023-03-17T04:12:27.245Z,101427.09
2023-03-17T04:14:59.540Z,101430.89
2023-03-17T04:17:31.843Z,101428.39
2023-03-17T04:20:04.534Z,101430.53
2023-03-17T04:22:35.218Z,101432.04
2023-03-17T04:25:08.903Z,101433.95
2023-03-17T04:27:41.285Z,101440.52
2023-03-17T04:30:17.910Z,101441.80
2023-03-17T04:32:50.444Z,101446.60
2023-03-17T04:35:24.585Z,101449.73
2023-03-17T04:37:57.050Z,101452.51
2023-03-17T04:40:29.617Z,101456.98
2023-03-17T04:43:03.563Z,101457.73
2023-03-17T04:45:36.213Z,101456.55
2023-03-17T04:48:09.036Z,101459.00
2023-03-17T04:50:42.552Z,101462.30
2023-03-17T04:53:14.905Z,101463.33
2023-03-17T04:55:48.030Z,101469.57
2023-03-17T04:58:30.432Z,101473.73
2023-03-17T05:01:03.916Z,101475.48
2023-03-17T05:03:34.617Z,101474.15
2023-03-17T05:06:08.694Z,101476.45
2023-03-17T05:08:41.254Z,101475.33
2023-03-17T05:11:14.130Z,101480.10
2023-03-17T05:13:46.626Z,101481.13
2023-03-17T05:16:19.149Z,101484.27
2023-03-17T05:18:51.500Z,101488.11
2023-03-17T05:21:23.746Z,101489.21
2023-03-17T05:23:56.123Z,101493.16
2023-03-17T05:26:28.592Z,101493.05
2023-03-17T05:29:01.034Z,101493.47
2023-03-17T05:31:33.541Z,101495.64
2023-03-17T05:34:06.324Z,101499.89
2023-03-17T05:36:38.752Z,101500.77
2023-03-17T05:39:12.808Z,101504.61
2023-03-17T05:41:47.263Z,101508.70
2023-03-17T05:44:20.541Z,101513.52
2023-03-17T05:46:52.844Z,101512.95
2023-03-17T05:49:25.347Z,101516.63
2023-03-17T05:51:57.728Z,101519.40
2023-03-17T05:54:30.011Z,101522.73
2023-03-17T05:57:03.057Z,101530.65
2023-03-17T05:59:36.353Z,101531.62
2023-03-17T06:02:08.887Z,101535.49
2023-03-17T06:04:41.812Z,101537.48
2023-03-17T06:07:14.357Z,101541.29
2023-03-17T06:09:45.126Z,101544.40
2023-03-17T06:12:17.621Z,101545.10
2023-03-17T06:14:50.014Z,101546.66
2023-03-17T06:17:22.345Z,101550.89
2023-03-17T06:19:54.772Z,101555.12
2023-03-17T06:22:27.019Z,101560.00
2023-03-17T06:24:59.630Z,101565.39
2023-03-17T06:27:30.913Z,101562.75
2023-03-17T06:30:03.417Z,101559.90
2023-03-17T06:32:34.592Z,101562.33
2023-03-17T06:35:08.244Z,101565.06
2023-03-17T06:37:40.692Z,101571.77
2023-03-17T06:40:16.306Z,101569.10
2023-03-17T06:42:48.844Z,101569.66
2023-03-17T06:45:21.198Z,101566.44
2023-03-17T06:47:53.587Z,101563.53
2023-03-17T06:50:26.061Z,101565.27
2023-03-17T06:52:58.590Z,101565.70
2023-03-17T06:55:32.138Z,101565.07
2023-03-17T06:58:05.153Z,101566.48
2023-03-17T07:00:38.448Z,101569.92
2023-03-17T07:03:11.405Z,101565.86
2023-03-17T07:05:43.873Z,101565.73
2023-03-17T07:08:16.378Z,101561.41
2023-03-17T07:10:49.107Z,101564.54
2023-03-17T07:13:22.461Z,101572.37
2023-03-17T07:15:55.607Z,101567.73
2023-03-17T07:18:28.095Z,101572.98
2023-03-17T07:21:00.827Z,101573.23
2023-03-17T07:23:31.598Z,101570.58
2023-03-17T07:26:04.318Z,101572.34
2023-03-17T07:28:36.727Z,101571.13
2023-03-17T07:31:09.709Z,101577.13
2023-03-17T07:33:42.158Z,101572.54
2023-03-17T07:36:16.048Z,101570.98
2023-03-17T07:38:48.876Z,101571.02
2023-03-17T07:41:22.156Z,101571.75
2023-03-17T07:43:54.421Z,101574.64
2023-03-17T07:46:28.022Z,101570.58
2023-03-17T07:49:00.453Z,101565.31
2023-03-17T07:51:32.865Z,101561.70
2023-03-17T07:54:06.594Z,101564.39
2023-03-17T07:56:39.293Z,101562.96
2023-03-17T07:59:11.050Z,101562.96
2023-03-17T08:01:43.338Z,101560.63
2023-03-17T08:04:15.901Z,101563.13
2023-03-17T08:06:48.402Z,101565.33
2023-03-17T08:09:21.231Z,101567.37
2023-03-17T08:11:53.645Z,101572.36
2023-03-17T08:14:26.058Z,101570.13
2023-03-17T08:16:58.924Z,101570.96
2023-03-17T08:19:31.744Z,101565.15
2023-03-17T08:22:04.051Z,101568.32
2023-03-17T08:24:37.137Z,101569.70
2023-03-17T08:27:09.682Z,101567.36
2023-03-17T08:29:40.390Z,101565.01
2023-03-17T08:32:13.557Z,101565.34
2023-03-17T08:34:46.321Z,101565.45
2023-03-17T08:37:18.649Z,101563.55
2023-03-17T08:39:51.322Z,101562.57
2023-03-17T08:42:23.658Z,101561.00
2023-03-17T08:44:56.035Z,101566.00
2023-03-17T08:47:28.451Z,101561.27
2023-03-17T08:50:00.598Z,101559.98
2023-03-17T08:52:33.864Z,101562.27
2023-03-17T08:55:08.934Z,101562.10
2023-03-17T08:57:41.392Z,101560.77
2023-03-17T09:00:20.393Z,101558.48
2023-03-17T09:02:52.798Z,101554.10
2023-03-17T09:05:25.268Z,101553.83
2023-03-17T09:07:57.647Z,101549.56
2023-03-17T09:10:30.636Z,101551.38
2023-03-17T09:13:04.531Z,101552.25
2023-03-17T09:15:37.964Z,101551.41
2023-03-17T09:18:10.675Z,101550.65
2023-03-17T09:20:41.453Z,101549.22
2023-03-17T09:23:14.277Z,101551.58
2023-03-17T09:25:47.254Z,101549.67
2023-03-17T09:28:20.063Z,101549.44
2023-03-17T09:30:53.016Z,101551.60
2023-03-17T09:33:25.942Z,101549.48
2023-03-17T09:35:58.804Z,101549.34
2023-03-17T09:38:31.888Z,101543.42
2023-03-17T09:41:13.513Z,101540.60
2023-03-17T09:43:51.084Z,101544.21
2023-03-17T09:46:37.054Z,101545.04
2023-03-17T09:49:10.854Z,101538.20
2023-03-17T09:51:43.595Z,101541.85
2023-03-17T09:54:20.391Z,101536.10
2023-03-17T09:56:56.527Z,101530.47
2023-03-17T09:59:40.559Z,101528.31
2023-03-17T10:02:20.414Z,101531.26
2023-03-17T10:04:53.419Z,101526.86
2023-03-17T10:07:29.826Z,101528.73
2023-03-17T10:10:05.274Z,101530.30
2023-03-17T10:12:47.042Z,101530.44
2023-03-17T10:15:25.284Z,101526.94
2023-03-17T10:17:58.071Z,101525.21
2023-03-17T10:20:32.399Z,101527.15
2023-03-17T10:23:06.569Z,101525.59
2023-03-17T10:25:39.624Z,101519.20
2023-03-17T10:28:22.992Z,101516.14
2023-03-17T10:30:55.965Z,101513.28
2023-03-17T10:33:28.794Z,101515.58
2023-03-17T10:36:10.706Z,101511.08
2023-03-17T10:38:43.369Z,101510.05
2023-03-17T10:41:17.584Z,101507.05
2023-03-17T10:43:51.952Z,101505.48
2023-03-17T10:46:26.721Z,101509.59
2023-03-17T10:49:05.694Z,101508.08
2023-03-17T10:51:40.800Z,101503.52
2023-03-17T10:54:18.890Z,101504.88
2023-03-17T10:56:59.174Z,101500.85
2023-03-17T10:59:33.938Z,101497.02
2023-03-17T11:02:15.554Z,101493.30
2023-03-17T11:04:48.501Z,101494.17
2023-03-17T11:07:23.205Z,101495.64
2023-03-17T11:10:01.563Z,101492.54
2023-03-17T11:12:40.178Z,101488.27
2023-03-17T11:15:16.681Z,101486.96
2023-03-17T11:17:55.153Z,101482.36
2023-03-17T11:20:47.456Z,101480.52
2023-03-17T11:23:30.120Z,101476.09
2023-03-17T11:26:09.253Z,101475.02
2023-03-17T11:28:44.665Z,101472.98
2023-03-17T11:31:24.526Z,101467.68
2023-03-17T11:34:02.663Z,101470.60
2023-03-17T11:36:44.837Z,101468.98
2023-03-17T11:39:22.108Z,101462.23
2023-03-17T11:42:08.303Z,101463.69
2023-03-17T11:45:01.436Z,101456.48
2023-03-17T11:47:47.012Z,101449.77
2023-03-17T11:50:28.029Z,101449.24
2023-03-17T11:53:11.805Z,101446.84
2023-03-17T11:55:48.928Z,101447.64
2023-03-17T11:58:30.530Z,101446.91
2023-03-17T12:01:04.515Z,101449.16
2023-03-17T12:03:43.428Z,101444.32
2023-03-17T12:06:20.636Z,101445.94
2023-03-17T12:08:56.500Z,101448.83
2023-03-17T12:11:31.945Z,101448.33
2023-03-17T12:14:06.085Z,101447.17
2023-03-17T12:16:42.593Z,101445.26
2023-03-17T12:19:17.802Z,101447.45
2023-03-17T12:21:54.445Z,101445.17
2023-03-17T12:24:31.969Z,101451.41
2023-03-17T12:27:07.720Z,101450.41
2023-03-17T12:29:47.525Z,101453.16
2023-03-17T12:32:23.796Z,101451.19
2023-03-17T12:34:58.861Z,101453.56
2023-03-17T12:37:32.095Z,101450.86
2023-03-17T12:40:08.829Z,101447.23
2023-03-17T12:42:52.493Z,101451.36
2023-03-17T12:45:56.081Z,101450.09
2023-03-17T12:48:58.308Z,101446.00
2023-03-17T12:51:41.997Z,101445.41
2023-03-17T12:54:17.238Z,101448.39
2023-03-17T12:56:50.619Z,101447.23
2023-03-17T12:59:26.175Z,101445.73
2023-03-17T13:02:00.347Z,101443.30
2023-03-17T13:04:35.639Z,101442.46
2023-03-17T13:07:10.608Z,101439.45
2023-03-17T13:09:53.144Z,101438.11
2023-03-17T13:12:52.990Z,101434.98
2023-03-17T13:15:30.656Z,101436.47
2023-03-17T13:18:31.438Z,101438.04
2023-03-17T13:21:16.353Z,101434.45
2023-03-17T13:23:55.060Z,101436.04
2023-03-17T13:26:55.267Z,101435.92
2023-03-17T13:29:38.949Z,101434.98
2023-03-17T13:32:35.185Z,101430.61
2023-03-17T13:35:38.970Z,101434.34
2023-03-17T13:38:25.551Z,101434.93
2023-03-17T13:41:09.634Z,101433.83
2023-03-17T13:43:51.986Z,101438.67
2023-03-17T13:46:35.032Z,101438.85
2023-03-17T13:49:21.461Z,101430.85
2023-03-17T13:52:00.444Z,101429.21
2023-03-17T13:54:42.327Z,101427.50
2023-03-17T13:57:29.493Z,101425.56
2023-03-17T14:00:17.600Z,101417.10
2023-03-17T14:02:51.349Z,101419.06
2023-03-17T14:05:29.285Z,101422.55
2023-03-17T14:08:04.539Z,101421.36
2023-03-17T14:10:37.421Z,101425.64
2023-03-17T14:13:22.107Z,101425.28
2023-03-17T14:15:57.613Z,101421.96
2023-03-17T14:18:38.424Z,101419.54
2023-03-17T14:21:24.162Z,101418.02
2023-03-17T14:24:04.279Z,101418.52
2023-03-17T14:26:37.095Z,101411.52
2023-03-17T14:29:11.290Z,101410.87
2023-03-17T14:31:44.219Z,101416.88
2023-03-17T14:34:17.677Z,101416.98
2023-03-17T14:36:50.039Z,101410.88
2023-03-17T14:39:27.244Z,101412.84
2023-03-17T14:42:05.929Z,101410.67
2023-03-17T14:44:42.326Z,101411.86
2023-03-17T14:47:21.074Z,101418.46
2023-03-17T14:49:54.373Z,101413.36
2023-03-17T14:52:29.529Z,101421.14
2023-03-17T14:55:02.245Z,101423.83
2023-03-17T14:57:38.951Z,101422.95
2023-03-17T15:00:36.631Z,101429.73
2023-03-17T15:03:20.522Z,101419.64
2023-03-17T15:06:04.053Z,101422.05
2023-03-17T15:08:49.169Z,101423.03
2023-03-17T15:11:25.261Z,101414.11
2023-03-17T15:14:07.340Z,101424.86
2023-03-17T15:16:39.874Z,101419.98
2023-03-17T15:19:18.170Z,101415.30
2023-03-17T15:21:50.706Z,101424.64
2023-03-17T15:24:30.006Z,101416.42
2023-03-17T15:27:07.293Z,101420.84
2023-03-17T15:29:39.689Z,101424.15
2023-03-17T15:32:16.664Z,101417.16
2023-03-17T15:34:49.003Z,101415.95
2023-03-17T15:37:23.489Z,101421.00
2023-03-17T15:39:56.747Z,101419.03
2023-03-17T15:42:31.081Z,101419.06
2023-03-17T15:45:03.993Z,101422.34
2023-03-17T15:47:40.127Z,101420.31
2023-03-17T15:50:19.417Z,101415.39
2023-03-17T15:52:54.148Z,101422.36
2023-03-17T15:55:29.586Z,101420.95
2023-03-17T15:58:01.973Z,101422.31
2023-03-17T16:00:34.917Z,101422.36
2023-03-17T16:03:14.813Z,101430.45
2023-03-17T16:05:47.194Z,101433.18
2023-03-17T16:08:19.606Z,101434.21
2023-03-17T16:10:52.952Z,101439.18
2023-03-17T16:13:25.382Z,101441.89
2023-03-17T16:15:59.466Z,101438.80
2023-03-17T16:18:34.828Z,101440.60
2023-03-17T16:21:07.985Z,101438.86
2023-03-17T16:23:40.356Z,101439.94
2023-03-17T16:26:15.990Z,101438.67
2023-03-17T16:28:50.109Z,101441.60
2023-03-17T16:31:25.614Z,101446.34
2023-03-17T16:33:58.240Z,101451.27
2023-03-17T16:36:30.650Z,101453.45
2023-03-17T16:39:05.957Z,101459.20
2023-03-17T16:41:38.349Z,101456.90
2023-03-17T16:44:14.288Z,101457.81
2023-03-17T16:46:46.778Z,101456.55
2023-03-17T16:49:18.032Z,101456.85
2023-03-17T16:51:50.790Z,101459.15
2023-03-17T16:54:23.427Z,101464.34
2023-03-17T16:56:55.926Z,101462.11
2023-03-17T16:59:31.312Z,101469.70
2023-03-17T17:02:03.835Z,101473.51
2023-03-17T17:04:38.616Z,101474.36
2023-03-17T17:07:11.036Z,101476.38
2023-03-17T17:09:43.478Z,101478.57
2023-03-17T17:12:15.916Z,101483.10
2023-03-17T17:14:48.328Z,101482.00
2023-03-17T17:17:20.708Z,101481.73
2023-03-17T17:19:53.142Z,101481.11
2023-03-17T17:22:25.626Z,101485.14
2023-03-17T17:24:56.405Z,101485.13
2023-03-17T17:27:28.763Z,101486.55
2023-03-17T17:30:01.092Z,101490.71
2023-03-17T17:32:33.918Z,101493.08
2023-03-17T17:35:07.019Z,101493.98
2023-03-17T17:37:39.786Z,101497.81
2023-03-17T17:40:17.746Z,101497.73
2023-03-17T17:42:50.371Z,101502.79
2023-03-17T17:45:23.369Z,101506.08
2023-03-17T17:47:55.946Z,101507.98
2023-03-17T17:50:27.437Z,101510.57
2023-03-17T17:53:05.471Z,101512.88
2023-03-17T17:55:37.930Z,101519.70
2023-03-17T17:58:10.809Z,101516.80
2023-03-17T18:00:43.583Z,101515.27
2023-03-17T18:03:16.057Z,101516.76
2023-03-17T18:05:48.397Z,101522.27
2023-03-17T18:08:20.929Z,101520.30
2023-03-17T18:10:53.343Z,101526.73
2023-03-17T18:13:25.887Z,101527.33
2023-03-17T18:15:58.215Z,101533.94
2023-03-17T18:18:30.577Z,101536.77
2023-03-17T18:21:04.288Z,101540.01
2023-03-17T18:23:36.714Z,101543.23
2023-03-17T18:26:09.570Z,101540.13
2023-03-17T18:28:42.011Z,101536.27
2023-03-17T18:31:17.185Z,101534.45
2023-03-17T18:33:51.322Z,101534.95
2023-03-17T18:36:24.413Z,101540.88
2023-03-17T18:38:56.897Z,101547.88
2023-03-17T18:41:29.840Z,101548.81
2023-03-17T18:44:02.568Z,101552.22
2023-03-17T18:46:34.881Z,101554.85
2023-03-17T18:49:08.909Z,101552.66
2023-03-17T18:51:41.269Z,101558.96
2023-03-17T18:54:13.885Z,101557.86
2023-03-17T18:56:44.534Z,101551.14
2023-03-17T18:59:16.960Z,101555.27
2023-03-17T19:01:49.540Z,101555.60
2023-03-17T19:04:22.117Z,101558.73
2023-03-17T19:06:54.587Z,101560.01
2023-03-17T19:09:27.293Z,101559.34
2023-03-17T19:11:58.037Z,101561.58
2023-03-17T19:14:30.656Z,101560.80
2023-03-17T19:17:01.453Z,101563.84
2023-03-17T19:19:35.463Z,101563.84
2023-03-17T19:22:08.061Z,101566.45
2023-03-17T19:24:38.923Z,101565.36
2023-03-17T19:27:11.560Z,101566.27
2023-03-17T19:29:44.000Z,101564.94
2023-03-17T19:32:17.304Z,101569.14
2023-03-17T19:34:49.927Z,101566.69
2023-03-17T19:37:22.690Z,101564.70
2023-03-17T19:39:55.091Z,101562.33
2023-03-17T19:42:27.783Z,101560.71
2023-03-17T19:45:00.511Z,101561.77
2023-03-17T19:47:34.422Z,101560.33
2023-03-17T19:50:07.461Z,101557.91
2023-03-17T19:52:39.833Z,101558.23
2023-03-17T19:55:13.066Z,101556.50
2023-03-17T19:57:45.681Z,101551.97
2023-03-17T20:00:19.554Z,101556.02
2023-03-17T20:02:52.789Z,101554.79
2023-03-17T20:05:25.276Z,101557.41
2023-03-17T20:07:57.680Z,101556.20
2023-03-17T20:10:31.313Z,101555.47
2023-03-17T20:13:03.925Z,101557.20
2023-03-17T20:15:36.794Z,101555.50
2023-03-17T20:18:09.388Z,101556.33
2023-03-17T20:20:40.363Z,101553.77
2023-03-17T20:23:12.946Z,101555.52
2023-03-17T20:25:43.723Z,101560.36
2023-03-17T20:28:16.794Z,101562.48
2023-03-17T20:30:50.315Z,101561.66
2023-03-17T20:33:22.954Z,101560.69
2023-03-17T20:35:53.763Z,101562.60
2023-03-17T20:38:25.739Z,101563.80
2023-03-17T20:40:59.003Z,101561.84
2023-03-17T20:43:32.016Z,101564.02
2023-03-17T20:46:03.015Z,101561.52
2023-03-17T20:48:34.808Z,101559.33
2023-03-17T20:51:06.672Z,101559.45
2023-03-17T20:53:37.718Z,101556.48
2023-03-17T20:56:09.435Z,101555.05
2023-03-17T20:58:40.364Z,101553.02
2023-03-17T21:01:13.002Z,101550.71
2023-03-17T21:03:44.406Z,101546.27
2023-03-17T21:06:15.405Z,101545.54
2023-03-17T21:08:46.900Z,101545.79
2023-03-17T21:11:18.354Z,101543.16
2023-03-17T21:13:49.301Z,101537.19
2023-03-17T21:16:21.440Z,101541.36
2023-03-17T21:18:52.830Z,101540.20
2023-03-17T21:21:24.964Z,101540.91
2023-03-17T21:23:55.815Z,101539.96
2023-03-17T21:26:26.698Z,101536.23
2023-03-17T21:28:57.660Z,101535.98
2023-03-17T21:31:28.681Z,101534.45
2023-03-17T21:33:59.506Z,101532.86
2023-03-17T21:36:30.326Z,101532.58
2023-03-17T21:39:01.165Z,101531.33
2023-03-17T21:41:33.252Z,101534.04
2023-03-17T21:44:04.781Z,101536.61
2023-03-17T21:46:35.542Z,101535.89
2023-03-17T21:49:06.525Z,101536.04
2023-03-17T21:51:37.385Z,101534.15
2023-03-17T21:54:08.142Z,101531.73
2023-03-17T21:56:39.814Z,101531.27
2023-03-17T21:59:11.280Z,101525.13
2023-03-17T22:01:42.697Z,101522.20
2023-03-17T22:04:14.206Z,101521.58
2023-03-17T22:06:45.130Z,101518.13
2023-03-17T22:09:18.191Z,101515.77
2023-03-17T22:11:50.183Z,101520.89
2023-03-17T22:14:21.027Z,101523.82
2023-03-17T22:16:52.470Z,101525.23
2023-03-17T22:19:23.266Z,101522.35
2023-03-17T22:21:54.221Z,101524.38
2023-03-17T22:24:25.722Z,101524.14
2023-03-17T22:26:56.983Z,101525.52
2023-03-17T22:29:27.800Z,101528.75
2023-03-17T22:31:58.791Z,101530.52
2023-03-17T22:34:29.663Z,101526.59
2023-03-17T22:37:00.473Z,101529.09
2023-03-17T22:39:31.448Z,101530.91
2023-03-17T22:42:02.316Z,101532.79
2023-03-17T22:44:33.143Z,101533.34
2023-03-17T22:47:04.417Z,101530.96
2023-03-17T22:49:35.210Z,101534.46
2023-03-17T22:52:06.247Z,101527.16
2023-03-17T22:54:37.048Z,101526.90
2023-03-17T22:57:08.042Z,101522.20
2023-03-17T22:59:38.953Z,101517.65
2023-03-17T23:02:11.573Z,101520.64
2023-03-17T23:04:42.505Z,101520.61
2023-03-17T23:07:13.514Z,101525.30
2023-03-17T23:09:45.425Z,101518.77
2023-03-17T23:12:16.341Z,101520.20
2023-03-17T23:14:47.252Z,101517.13
2023-03-17T23:17:18.161Z,101519.04
2023-03-17T23:19:49.403Z,101520.85
2023-03-17T23:22:20.442Z,101523.32
2023-03-17T23:24:51.915Z,101522.64
2023-03-17T23:27:22.706Z,101520.71
2023-03-17T23:29:53.566Z,101519.46
2023-03-17T23:32:24.699Z,101519.91
2023-03-17T23:34:55.636Z,101516.80
2023-03-17T23:37:27.451Z,101519.67
2023-03-17T23:39:58.280Z,101518.75
2023-03-17T23:42:29.944Z,101522.28
2023-03-17T23:45:00.892Z,101517.45
2023-03-17T23:47:31.652Z,101518.82
2023-03-17T23:50:03.776Z,101517.23
2023-03-17T23:52:34.567Z,101514.47
2023-03-17T23:55:06.032Z,101516.59
2023-03-17T23:57:37.908Z,101514.33
